Time;durP1;ratioP1;P1;durP2;ratioP2;P2;SDS_P1;SDS_P2;PMS_P1;PMS_P2;Temp;Humidity;BMP_temperature;BMP_pressure;BME280_temperature;BME280_humidity;BME280_pressure;Samples;Min_cycle;Max_cycle;Signal;HPM_P1;HPM_P2
2022/12/25 00:00:50;;;;;;;;;;;8.30;99.90;;;;;;5050887;28;19916;-54
2022/12/25 00:03:16;;;;;;;;;;;8.40;99.90;;;;;;5051044;28;20361;-54
2022/12/25 00:05:41;;;;;;;;;;;8.40;99.90;;;;;;5051220;28;19909;-53
2022/12/25 00:08:08;;;;;;;;;;;8.40;99.90;;;;;;5050968;28;20420;-55
2022/12/25 00:10:34;;;;;;;;;;;8.40;99.90;;;;;;5050728;28;19916;-56
2022/12/25 00:13:00;;;;;;;;;;;8.40;99.90;;;;;;5050972;28;19959;-53
2022/12/25 00:15:25;;;;;;;;;;;8.40;99.90;;;;;;5050839;28;20400;-54
2022/12/25 00:17:51;;;;;;;;;;;8.40;99.90;;;;;;5050681;28;19961;-56
2022/12/25 00:20:17;;;;;;;;;;;8.50;99.90;;;;;;5050549;28;19954;-54
2022/12/25 00:22:42;;;;;;;;;;;8.50;99.90;;;;;;5050877;28;19916;-55
2022/12/25 00:25:08;;;;;;;;;;;8.50;99.90;;;;;;5049592;28;20141;-54
2022/12/25 00:27:36;;;;;;;;;;;8.50;99.90;;;;;;5050649;28;19909;-54
2022/12/25 00:30:03;;;;;;;;;;;8.50;99.90;;;;;;5050625;28;19908;-51
2022/12/25 00:32:28;;;;;;;;;;;8.50;99.90;;;;;;5050782;28;19905;-55
2022/12/25 00:34:54;;;;;;;;;;;8.60;99.90;;;;;;5050952;28;20292;-55
2022/12/25 00:37:20;;;;;;;;;;;8.50;99.90;;;;;;5050791;28;19908;-52
2022/12/25 00:39:46;;;;;;;;;;;8.50;99.90;;;;;;5050434;28;19962;-55
2022/12/25 00:42:18;;;;;;;;;;;8.50;99.90;;;;;;5050531;28;19971;-55
2022/12/25 00:44:44;;;;;;;;;;;8.50;99.90;;;;;;5050398;28;19912;-56
2022/12/25 00:47:10;;;;;;;;;;;8.60;99.90;;;;;;5050666;28;20373;-56
2022/12/25 00:49:36;;;;;;;;;;;8.70;99.90;;;;;;5050639;28;19909;-54
2022/12/25 00:52:01;;;;;;;;;;;8.70;99.90;;;;;;5050734;28;19944;-54
2022/12/25 00:54:27;;;;;;;;;;;8.80;99.90;;;;;;5050531;28;20340;-53
2022/12/25 00:56:53;;;;;;;;;;;8.80;99.90;;;;;;5050339;28;20011;-53
2022/12/25 00:59:18;;;;;;;;;;;8.80;99.90;;;;;;5050238;28;19908;-52
2022/12/25 01:01:44;;;;;;;;;;;8.80;99.90;;;;;;5050620;28;19955;-55
2022/12/25 01:04:10;;;;;;;;;;;8.90;99.90;;;;;;5050306;28;20331;-50
2022/12/25 01:06:36;;;;;;;;;;;8.90;99.90;;;;;;5050231;28;19912;-54
2022/12/25 01:11:45;;;;;;;;;;;8.80;99.90;;;;;;5053880;28;19916;-54
2022/12/25 01:14:11;;;;;;;;;;;8.90;99.90;;;;;;5054040;28;19909;-56
2022/12/25 01:16:37;;;;;;;;;;;8.90;99.90;;;;;;5053741;28;20349;-54
2022/12/25 01:19:03;;;;;;;;;;;8.90;99.90;;;;;;5053767;28;20092;-50
2022/12/25 01:21:28;;;;;;;;;;;8.90;99.90;;;;;;5053711;28;19916;-54
2022/12/25 01:23:54;;;;;;;;;;;8.90;99.90;;;;;;5052434;28;19913;-54
2022/12/25 01:26:20;;;;;;;;;;;9.00;99.90;;;;;;5053324;28;19916;-55
2022/12/25 01:28:46;;;;;;;;;;;9.10;99.90;;;;;;5053724;28;19916;-55
2022/12/25 01:31:13;;;;;;;;;;;9.10;99.90;;;;;;5053724;28;19999;-53
2022/12/25 01:33:40;;;;;;;;;;;9.10;99.90;;;;;;5053581;28;19909;-52
2022/12/25 01:36:15;;;;;;;;;;;9.10;99.90;;;;;;5053553;28;19913;-54
2022/12/25 01:38:42;;;;;;;;;;;9.10;99.90;;;;;;5053094;28;20377;-56
2022/12/25 01:41:08;;;;;;;;;;;9.10;99.90;;;;;;5053321;28;20014;-55
2022/12/25 01:43:33;;;;;;;;;;;9.10;99.90;;;;;;5053176;28;19913;-54
2022/12/25 01:45:59;;;;;;;;;;;9.10;99.90;;;;;;5053393;28;19909;-55
2022/12/25 01:48:35;;;;;;;;;;;9.10;99.90;;;;;;5053132;28;19952;-52
2022/12/25 01:51:05;;;;;;;;;;;9.10;99.90;;;;;;5053150;28;19916;-53
2022/12/25 01:53:31;;;;;;;;;;;9.10;99.90;;;;;;5053020;28;19916;-53
2022/12/25 01:56:00;;;;;;;;;;;9.10;99.90;;;;;;5053264;28;19908;-54
2022/12/25 01:58:27;;;;;;;;;;;9.20;99.90;;;;;;5052975;28;19908;-52
2022/12/25 02:00:52;;;;;;;;;;;9.20;99.90;;;;;;5052645;28;19912;-50
2022/12/25 02:03:19;;;;;;;;;;;9.10;99.90;;;;;;5052943;28;19916;-51
2022/12/25 02:05:45;;;;;;;;;;;9.20;99.90;;;;;;5053318;28;19956;-51
2022/12/25 02:08:13;;;;;;;;;;;9.10;99.90;;;;;;5052728;28;19978;-54
2022/12/25 02:10:39;;;;;;;;;;;9.10;99.90;;;;;;5052630;28;19931;-54
2022/12/25 02:13:05;;;;;;;;;;;9.10;99.90;;;;;;5051732;28;19912;-54
2022/12/25 02:15:37;;;;;;;;;;;9.10;99.90;;;;;;5052770;28;19905;-53
2022/12/25 02:18:11;;;;;;;;;;;9.10;99.90;;;;;;5052640;28;19909;-55
2022/12/25 02:20:49;;;;;;;;;;;9.20;99.90;;;;;;5051352;28;19913;-54
2022/12/25 02:23:40;;;;;;;;;;;9.20;99.90;;;;;;5052644;28;20007;-52
2022/12/25 02:26:25;;;;;;;;;;;9.20;99.90;;;;;;5052609;28;19909;-54
2022/12/25 02:29:09;;;;;;;;;;;9.30;99.90;;;;;;5052072;28;19914;-54
2022/12/25 02:32:04;;;;;;;;;;;9.30;99.90;;;;;;5052337;28;19955;-56
2022/12/25 02:34:51;;;;;;;;;;;9.30;99.90;;;;;;4980487;28;19910;-54
2022/12/25 02:37:28;;;;;;;;;;;9.40;99.90;;;;;;5052282;28;19954;-52
2022/12/25 02:40:15;;;;;;;;;;;9.40;99.90;;;;;;5051996;28;19909;-53
2022/12/25 03:08:30;;;;;;;;;;;9.40;99.90;;;;;;4992149;28;19932;-51
2022/12/25 03:13:48;;;;;;;;;;;9.40;99.90;;;;;;4992439;28;19920;-46
2022/12/25 03:18:58;;;;;;;;;;;9.50;99.90;;;;;;4992084;28;19968;-47
2022/12/25 03:26:55;;;;;;;;;;;9.40;99.90;;;;;;4992052;28;19972;-46
2022/12/25 03:32:17;;;;;;;;;;;9.40;99.90;;;;;;4991941;28;19964;-48
2022/12/25 04:36:19;;;;;;;;;;;9.50;99.90;;;;;;4991271;28;20385;-49
2022/12/25 04:38:45;;;;;;;;;;;9.60;99.90;;;;;;4991252;28;19910;-50
2022/12/25 04:41:12;;;;;;;;;;;9.60;99.90;;;;;;4991485;28;19929;-48
2022/12/25 04:43:37;;;;;;;;;;;9.60;99.90;;;;;;4991891;28;19940;-52
2022/12/25 04:46:04;;;;;;;;;;;9.60;99.90;;;;;;4995136;28;19922;-51
2022/12/25 04:48:32;;;;;;;;;;;9.70;99.90;;;;;;4994803;28;19964;-51
2022/12/25 04:50:57;;;;;;;;;;;9.70;99.90;;;;;;4995118;28;19983;-50
2022/12/25 04:53:23;;;;;;;;;;;9.70;99.90;;;;;;4995031;28;19909;-51
2022/12/25 04:55:49;;;;;;;;;;;9.70;99.90;;;;;;5010188;28;19910;-51
2022/12/25 04:58:14;;;;;;;;;;;9.70;99.90;;;;;;4994836;28;20378;-51
2022/12/25 05:00:40;;;;;;;;;;;9.70;99.90;;;;;;4994608;28;19952;-48
2022/12/25 05:03:05;;;;;;;;;;;9.70;99.90;;;;;;4994774;28;19942;-46
2022/12/25 05:05:31;;;;;;;;;;;9.70;99.90;;;;;;5009889;28;19956;-51
2022/12/25 05:07:57;;;;;;;;;;;9.70;99.90;;;;;;4994775;28;19948;-53
2022/12/25 05:10:22;;;;;;;;;;;9.60;99.90;;;;;;4994567;28;20441;-48
2022/12/25 05:12:48;;;;;;;;;;;9.70;99.90;;;;;;4994649;28;19956;-50
2022/12/25 05:15:14;;;;;;;;;;;9.70;99.90;;;;;;4994651;28;20294;-49
2022/12/25 05:17:40;;;;;;;;;;;9.70;99.90;;;;;;4994347;28;19910;-48
2022/12/25 05:20:06;;;;;;;;;;;9.70;99.90;;;;;;4994369;28;20485;-46
2022/12/25 05:22:31;;;;;;;;;;;9.70;99.90;;;;;;4994771;28;20001;-47
2022/12/25 05:24:57;;;;;;;;;;;9.70;99.90;;;;;;4994410;28;20378;-47
2022/12/25 05:27:22;;;;;;;;;;;9.80;99.90;;;;;;4994306;28;20028;-49
2022/12/25 05:29:48;;;;;;;;;;;9.80;99.90;;;;;;4992781;28;20367;-46
2022/12/25 05:32:13;;;;;;;;;;;9.90;99.90;;;;;;4994805;28;19910;-49
2022/12/25 05:34:39;;;;;;;;;;;9.90;99.90;;;;;;4994256;28;19952;-46
2022/12/25 05:37:05;;;;;;;;;;;9.90;99.90;;;;;;4994104;28;20285;-46
2022/12/25 05:39:30;;;;;;;;;;;9.90;99.90;;;;;;4994439;28;19956;-46
2022/12/25 05:41:56;;;;;;;;;;;9.90;99.90;;;;;;4994185;28;19917;-47
2022/12/25 05:44:21;;;;;;;;;;;9.90;99.90;;;;;;4993970;28;20309;-46
2022/12/25 05:46:47;;;;;;;;;;;9.90;99.90;;;;;;4993753;28;19909;-47
2022/12/25 05:49:13;;;;;;;;;;;10.00;99.90;;;;;;4993987;28;19933;-47
2022/12/25 05:51:38;;;;;;;;;;;10.00;99.90;;;;;;4994136;28;19910;-46
2022/12/25 05:54:04;;;;;;;;;;;10.00;99.90;;;;;;4993955;28;20286;-47
2022/12/25 05:56:29;;;;;;;;;;;10.00;99.90;;;;;;4993603;28;20384;-46
2022/12/25 05:58:55;;;;;;;;;;;10.00;99.90;;;;;;4993629;28;19964;-48
2022/12/25 06:01:22;;;;;;;;;;;10.00;99.90;;;;;;4993646;28;19953;-47
2022/12/25 06:03:48;;;;;;;;;;;10.00;99.90;;;;;;4993801;28;19909;-47
2022/12/25 06:06:14;;;;;;;;;;;10.00;99.90;;;;;;5008970;28;20260;-46
2022/12/25 06:08:39;;;;;;;;;;;10.10;99.90;;;;;;4993420;28;19910;-48
2022/12/25 06:11:05;;;;;;;;;;;10.10;99.90;;;;;;4993747;28;19917;-46
2022/12/25 06:13:31;;;;;;;;;;;10.10;99.90;;;;;;4993546;28;19909;-47
2022/12/25 06:15:57;;;;;;;;;;;10.00;99.90;;;;;;4993461;28;19921;-50
2022/12/25 06:18:24;;;;;;;;;;;10.10;99.90;;;;;;4993240;28;19916;-47
2022/12/25 06:20:49;;;;;;;;;;;10.10;99.90;;;;;;4993352;28;19920;-46
2022/12/25 06:23:15;;;;;;;;;;;10.10;99.90;;;;;;4993487;28;19910;-47
2022/12/25 06:25:40;;;;;;;;;;;10.10;99.90;;;;;;4993431;28;20309;-47
2022/12/25 06:28:06;;;;;;;;;;;10.00;99.90;;;;;;4993190;28;20012;-48
2022/12/25 06:30:32;;;;;;;;;;;10.00;99.90;;;;;;4993000;28;19965;-47
2022/12/25 06:33:00;;;;;;;;;;;10.00;99.90;;;;;;4993150;28;20075;-48
2022/12/25 06:35:26;;;;;;;;;;;9.90;99.90;;;;;;4993253;28;20000;-46
2022/12/25 06:37:52;;;;;;;;;;;9.90;99.90;;;;;;4992891;28;20003;-46
2022/12/25 06:40:18;;;;;;;;;;;9.90;99.90;;;;;;4992930;28;20323;-47
2022/12/25 06:42:43;;;;;;;;;;;9.80;99.90;;;;;;4993406;28;19914;-49
2022/12/25 06:45:10;;;;;;;;;;;9.80;99.90;;;;;;4992911;28;19914;-47
2022/12/25 06:47:36;;;;;;;;;;;9.70;99.90;;;;;;4992751;28;19918;-50
2022/12/25 06:50:02;;;;;;;;;;;9.80;99.90;;;;;;4992701;28;19913;-47
2022/12/25 06:52:27;;;;;;;;;;;9.70;99.90;;;;;;4993181;28;20334;-48
2022/12/25 06:54:53;;;;;;;;;;;9.70;99.90;;;;;;4992860;28;19917;-46
2022/12/25 06:57:18;;;;;;;;;;;9.70;99.90;;;;;;4992545;28;19964;-48
2022/12/25 06:59:44;;;;;;;;;;;9.70;99.90;;;;;;4992466;28;20410;-49
2022/12/25 07:02:16;;;;;;;;;;;9.70;99.90;;;;;;4992595;28;19914;-48
2022/12/25 07:04:41;;;;;;;;;;;9.70;99.90;;;;;;4992664;28;19956;-47
2022/12/25 07:07:07;;;;;;;;;;;9.70;99.90;;;;;;4991944;28;19909;-47
2022/12/25 07:09:33;;;;;;;;;;;9.70;99.90;;;;;;4992778;28;19913;-50
2022/12/25 07:12:03;;;;;;;;;;;9.70;99.90;;;;;;4992409;28;19914;-48
2022/12/25 07:14:28;;;;;;;;;;;9.70;99.90;;;;;;4992475;28;19913;-46
2022/12/25 07:16:54;;;;;;;;;;;9.70;99.90;;;;;;4992157;28;20421;-48
2022/12/25 07:19:19;;;;;;;;;;;9.70;99.90;;;;;;4992456;28;19916;-48
2022/12/25 07:21:46;;;;;;;;;;;9.80;99.90;;;;;;4992614;28;20347;-49
2022/12/25 07:24:16;;;;;;;;;;;9.80;99.90;;;;;;4992292;28;20374;-49
2022/12/25 07:26:42;;;;;;;;;;;9.80;99.90;;;;;;4991936;28;20004;-49
2022/12/25 07:29:07;;;;;;;;;;;9.80;99.90;;;;;;4991995;28;20064;-48
2022/12/25 07:31:33;;;;;;;;;;;9.90;99.90;;;;;;4992279;28;19910;-50
2022/12/25 07:33:58;;;;;;;;;;;9.90;99.90;;;;;;4992171;28;19909;-49
2022/12/25 07:36:24;;;;;;;;;;;9.90;99.90;;;;;;4992031;28;19996;-47
2022/12/25 07:38:49;;;;;;;;;;;9.90;99.90;;;;;;4991835;28;19910;-50
2022/12/25 07:41:15;;;;;;;;;;;9.90;99.90;;;;;;4991834;28;19913;-53
2022/12/25 07:43:41;;;;;;;;;;;9.90;99.90;;;;;;4991983;28;19910;-51
2022/12/25 07:46:07;;;;;;;;;;;9.90;99.90;;;;;;4992132;28;19928;-51
2022/12/25 07:48:34;;;;;;;;;;;9.90;99.90;;;;;;4991564;28;19934;-52
2022/12/25 07:51:01;;;;;;;;;;;9.90;99.90;;;;;;4991965;28;19910;-50
2022/12/25 07:53:27;;;;;;;;;;;9.90;99.90;;;;;;4991793;28;20362;-50
2022/12/25 07:55:56;;;;;;;;;;;10.00;99.90;;;;;;4991731;28;19964;-52
2022/12/25 07:58:22;;;;;;;;;;;10.00;99.90;;;;;;4991854;28;19956;-51
2022/12/25 08:00:47;;;;;;;;;;;9.90;99.90;;;;;;4991421;28;19913;-51
2022/12/25 08:03:14;;;;;;;;;;;9.90;99.90;;;;;;4991729;28;20381;-50
2022/12/25 08:05:40;;;;;;;;;;;10.00;99.90;;;;;;4991806;28;19967;-51
2022/12/25 08:08:05;;;;;;;;;;;10.00;99.90;;;;;;4991504;28;19910;-50
2022/12/25 08:10:31;;;;;;;;;;;10.00;99.90;;;;;;4991394;28;20282;-52
2022/12/25 08:12:56;;;;;;;;;;;10.00;99.90;;;;;;4991605;28;20020;-49
2022/12/25 08:15:22;;;;;;;;;;;10.00;99.90;;;;;;4991580;28;19917;-47
2022/12/25 08:17:48;;;;;;;;;;;10.10;99.90;;;;;;4991442;28;19916;-49
2022/12/25 08:20:13;;;;;;;;;;;10.10;99.90;;;;;;4994765;28;20032;-50
2022/12/25 08:22:39;;;;;;;;;;;10.10;99.90;;;;;;4995607;28;19921;-48
2022/12/25 08:25:05;;;;;;;;;;;10.10;99.90;;;;;;4995569;28;19916;-47
2022/12/25 08:27:30;;;;;;;;;;;10.10;99.90;;;;;;4995304;28;19916;-47
2022/12/25 08:29:56;;;;;;;;;;;10.10;99.90;;;;;;4995198;28;19917;-48
2022/12/25 08:32:21;;;;;;;;;;;10.10;99.90;;;;;;4995426;28;19910;-47
2022/12/25 08:34:48;;;;;;;;;;;10.10;99.90;;;;;;4995495;28;20358;-47
2022/12/25 08:37:13;;;;;;;;;;;10.10;99.90;;;;;;4995230;28;20185;-47
2022/12/25 08:39:39;;;;;;;;;;;10.10;99.90;;;;;;4995061;28;19917;-51
2022/12/25 08:42:04;;;;;;;;;;;10.20;99.90;;;;;;4995351;28;19913;-51
2022/12/25 08:44:30;;;;;;;;;;;10.20;99.90;;;;;;4995111;28;19984;-50
2022/12/25 08:46:56;;;;;;;;;;;10.30;99.90;;;;;;4994982;28;19917;-47
2022/12/25 08:49:21;;;;;;;;;;;10.30;99.90;;;;;;4995092;28;20358;-49
2022/12/25 08:51:47;;;;;;;;;;;10.30;99.90;;;;;;4995574;28;20406;-50
2022/12/25 08:54:12;;;;;;;;;;;10.30;99.90;;;;;;4995325;28;19955;-46
2022/12/25 08:56:38;;;;;;;;;;;10.20;99.90;;;;;;4994989;28;20009;-50
2022/12/25 08:59:04;;;;;;;;;;;10.20;99.90;;;;;;4994985;28;20263;-47
2022/12/25 09:01:29;;;;;;;;;;;10.30;99.90;;;;;;4995045;28;19913;-52
2022/12/25 09:03:55;;;;;;;;;;;10.30;99.90;;;;;;4994911;28;19910;-51
2022/12/25 09:06:20;;;;;;;;;;;10.30;99.90;;;;;;4994720;28;20121;-52
2022/12/25 09:08:46;;;;;;;;;;;10.30;99.90;;;;;;4994594;28;19924;-51
2022/12/25 09:11:12;;;;;;;;;;;10.30;99.90;;;;;;4994959;28;19931;-51
2022/12/25 09:13:38;;;;;;;;;;;10.20;99.90;;;;;;4994880;28;19971;-52
2022/12/25 09:16:07;;;;;;;;;;;10.20;99.90;;;;;;4994656;28;20379;-51
2022/12/25 09:18:33;;;;;;;;;;;10.20;99.90;;;;;;4992965;28;20444;-48
2022/12/25 09:21:00;;;;;;;;;;;10.20;99.90;;;;;;4994883;28;19968;-50
2022/12/25 09:23:26;;;;;;;;;;;10.10;99.90;;;;;;4994454;28;19941;-49
2022/12/25 09:25:52;;;;;;;;;;;10.10;99.90;;;;;;4994707;28;19916;-51
2022/12/25 09:28:18;;;;;;;;;;;10.00;99.90;;;;;;4994361;28;20009;-51
2022/12/25 09:30:43;;;;;;;;;;;10.00;99.90;;;;;;4993918;28;19909;-52
2022/12/25 09:33:09;;;;;;;;;;;9.90;99.90;;;;;;4994226;28;19960;-51
2022/12/25 09:35:34;;;;;;;;;;;9.90;99.90;;;;;;4994304;28;19914;-48
2022/12/25 09:38:00;;;;;;;;;;;9.80;99.90;;;;;;4994460;28;19917;-53
2022/12/25 09:40:28;;;;;;;;;;;9.80;99.90;;;;;;4994050;28;20429;-52
2022/12/25 09:42:55;;;;;;;;;;;9.70;99.90;;;;;;4994206;28;20331;-50
2022/12/25 09:45:34;;;;;;;;;;;9.70;99.90;;;;;;4994091;28;19914;-52
2022/12/25 09:48:00;;;;;;;;;;;9.70;99.90;;;;;;4993897;28;19910;-52
2022/12/25 09:50:41;;;;;;;;;;;9.60;99.90;;;;;;4993746;28;20280;-51
2022/12/25 09:53:20;;;;;;;;;;;9.60;99.90;;;;;;4993921;28;20079;-48
2022/12/25 09:56:05;;;;;;;;;;;9.60;99.90;;;;;;4994130;28;19965;-52
2022/12/25 09:58:31;;;;;;;;;;;9.60;99.90;;;;;;4993525;28;19916;-51
2022/12/25 10:01:02;;;;;;;;;;;9.70;99.90;;;;;;4993689;28;19918;-50
2022/12/25 10:03:46;;;;;;;;;;;9.70;99.90;;;;;;4993840;28;20164;-51
2022/12/25 10:06:21;;;;;;;;;;;9.70;99.90;;;;;;4993990;28;19917;-52
2022/12/25 10:08:55;;;;;;;;;;;9.70;99.90;;;;;;4993533;28;19916;-50
2022/12/25 10:11:21;;;;;;;;;;;9.70;99.90;;;;;;4993534;28;20263;-52
2022/12/25 10:13:49;;;;;;;;;;;9.60;99.90;;;;;;4993541;28;19959;-51
2022/12/25 10:16:24;;;;;;;;;;;9.60;99.90;;;;;;4993640;28;19910;-50
2022/12/25 10:18:58;;;;;;;;;;;9.60;99.90;;;;;;4993352;28;19939;-50
2022/12/25 10:21:26;;;;;;;;;;;9.60;99.90;;;;;;4993364;28;20358;-47
2022/12/25 10:24:04;;;;;;;;;;;9.70;99.90;;;;;;4993302;28;19916;-50
2022/12/25 10:26:30;;;;;;;;;;;9.70;99.90;;;;;;4993173;28;20421;-51
2022/12/25 10:28:58;;;;;;;;;;;9.70;99.90;;;;;;4993285;28;19926;-51
2022/12/25 10:31:28;;;;;;;;;;;9.70;99.90;;;;;;4993263;28;19913;-53
2022/12/25 10:33:54;;;;;;;;;;;9.70;99.90;;;;;;4993234;28;19910;-52
2022/12/25 10:36:21;;;;;;;;;;;9.60;99.90;;;;;;4992902;28;20402;-53
2022/12/25 10:38:47;;;;;;;;;;;9.70;99.90;;;;;;4992922;28;19914;-51
2022/12/25 10:41:25;;;;;;;;;;;9.70;99.90;;;;;;4992186;28;19910;-51
2022/12/25 10:43:52;;;;;;;;;;;9.70;99.90;;;;;;4992993;28;20282;-51
2022/12/25 10:46:18;;;;;;;;;;;9.70;99.90;;;;;;4992932;28;20204;-52
2022/12/25 10:48:49;;;;;;;;;;;9.70;99.90;;;;;;4992633;28;19996;-50
2022/12/25 10:51:32;;;;;;;;;;;9.70;99.90;;;;;;4992903;28;19910;-53
2022/12/25 10:53:58;;;;;;;;;;;9.70;99.90;;;;;;4992702;28;19917;-50
2022/12/25 10:56:23;;;;;;;;;;;9.70;99.90;;;;;;4992480;28;19917;-52
2022/12/25 10:58:49;;;;;;;;;;;9.70;99.90;;;;;;4992595;28;20317;-53
2022/12/25 11:01:15;;;;;;;;;;;9.80;99.90;;;;;;4992514;28;19941;-53
2022/12/25 11:03:43;;;;;;;;;;;9.80;99.90;;;;;;4992719;28;20370;-49
2022/12/25 11:06:23;;;;;;;;;;;9.80;99.90;;;;;;4992788;28;19917;-51
2022/12/25 11:08:50;;;;;;;;;;;9.80;99.90;;;;;;4992387;28;19930;-52
2022/12/25 11:11:18;;;;;;;;;;;9.80;99.90;;;;;;4992486;28;20000;-51
2022/12/25 11:13:48;;;;;;;;;;;9.70;99.90;;;;;;4992361;28;20286;-52
2022/12/25 11:16:24;;;;;;;;;;;9.80;99.90;;;;;;4992615;28;19928;-51
2022/12/25 11:18:50;;;;;;;;;;;9.80;99.90;;;;;;4992238;28;20001;-51
2022/12/25 11:21:17;;;;;;;;;;;9.80;99.90;;;;;;4992266;28;19992;-52
2022/12/25 11:23:45;;;;;;;;;;;9.80;99.90;;;;;;4992162;28;19910;-51
2022/12/25 11:26:11;;;;;;;;;;;9.70;99.90;;;;;;4992195;28;20300;-52
2022/12/25 11:28:39;;;;;;;;;;;9.70;99.90;;;;;;4991934;28;19909;-53
2022/12/25 11:31:07;;;;;;;;;;;9.70;99.90;;;;;;4992235;28;19909;-52
2022/12/25 11:33:38;;;;;;;;;;;9.70;99.90;;;;;;4992097;28;19952;-48
2022/12/25 11:36:08;;;;;;;;;;;9.60;99.90;;;;;;4992074;28;20434;-52
2022/12/25 11:38:33;;;;;;;;;;;9.60;99.90;;;;;;4991705;28;19910;-53
2022/12/25 11:41:01;;;;;;;;;;;9.60;99.90;;;;;;4991866;28;20397;-51
2022/12/25 11:43:35;;;;;;;;;;;9.60;99.90;;;;;;4992069;28;19909;-52
2022/12/25 11:46:19;;;;;;;;;;;9.60;99.90;;;;;;4991973;28;20012;-51
2022/12/25 11:48:55;;;;;;;;;;;9.60;99.90;;;;;;4991777;28;20378;-52
2022/12/25 11:51:24;;;;;;;;;;;9.70;99.90;;;;;;4991781;28;20322;-50
2022/12/25 11:53:51;;;;;;;;;;;9.70;99.90;;;;;;4992007;28;20347;-50
2022/12/25 11:56:20;;;;;;;;;;;9.70;99.90;;;;;;4991641;28;20005;-50
2022/12/25 11:58:46;;;;;;;;;;;9.70;99.90;;;;;;4991751;28;19910;-51
2022/12/25 12:01:17;;;;;;;;;;;9.70;99.90;;;;;;4991814;28;20270;-54
2022/12/25 12:03:43;;;;;;;;;;;9.80;99.90;;;;;;4991758;28;19955;-53
2022/12/25 12:06:15;;;;;;;;;;;9.80;99.90;;;;;;4991828;28;20437;-52
2022/12/25 12:08:41;;;;;;;;;;;9.80;99.90;;;;;;4991563;28;20090;-53
2022/12/25 12:11:19;;;;;;;;;;;9.80;99.90;;;;;;4991810;28;19920;-53
2022/12/25 12:13:52;;;;;;;;;;;9.80;99.90;;;;;;4991717;28;19910;-53
2022/12/25 12:16:18;;;;;;;;;;;9.80;99.90;;;;;;4991487;28;20290;-52
2022/12/25 12:18:44;;;;;;;;;;;9.70;99.90;;;;;;4991459;28;19916;-50
2022/12/25 12:21:16;;;;;;;;;;;9.70;99.90;;;;;;4991518;28;19922;-54
2022/12/25 12:23:44;;;;;;;;;;;9.70;99.90;;;;;;4991683;28;20246;-51
2022/12/25 12:26:16;;;;;;;;;;;9.70;99.90;;;;;;4991646;28;19992;-52
2022/12/25 12:28:44;;;;;;;;;;;9.70;99.90;;;;;;4991354;28;19916;-51
2022/12/25 12:31:10;;;;;;;;;;;9.70;99.90;;;;;;4991615;28;19913;-51
2022/12/25 12:33:38;;;;;;;;;;;9.70;99.90;;;;;;5006785;28;19980;-50
2022/12/25 12:36:04;;;;;;;;;;;9.70;99.90;;;;;;4991700;28;19909;-52
2022/12/25 12:38:31;;;;;;;;;;;9.70;99.90;;;;;;4991057;28;19910;-46
2022/12/25 12:40:56;;;;;;;;;;;9.80;99.90;;;;;;4991443;28;19949;-49
2022/12/25 12:43:25;;;;;;;;;;;9.80;99.90;;;;;;4991671;28;20327;-52
2022/12/25 12:46:01;;;;;;;;;;;9.80;99.90;;;;;;4991532;28;19909;-50
2022/12/25 12:48:28;;;;;;;;;;;9.80;99.90;;;;;;4991357;28;19921;-51
2022/12/25 12:51:26;;;;;;;;;;;9.90;99.90;;;;;;4991215;28;19910;-51
2022/12/25 12:54:02;;;;;;;;;;;9.80;99.90;;;;;;4968579;28;19909;-52
2022/12/25 12:56:28;;;;;;;;;;;9.80;99.90;;;;;;4991283;28;19913;-51
2022/12/25 12:58:53;;;;;;;;;;;9.80;99.90;;;;;;4991238;28;19909;-48
2022/12/25 13:01:25;;;;;;;;;;;9.70;99.90;;;;;;4991336;28;19968;-50
2022/12/25 13:04:02;;;;;;;;;;;9.70;99.90;;;;;;4991273;28;19922;-51
2022/12/25 13:06:33;;;;;;;;;;;9.80;99.90;;;;;;4994627;28;19945;-49
2022/12/25 13:08:59;;;;;;;;;;;9.80;99.90;;;;;;4994679;28;19913;-50
2022/12/25 13:11:30;;;;;;;;;;;9.80;99.90;;;;;;4994707;28;20421;-49
2022/12/25 13:13:58;;;;;;;;;;;9.80;99.90;;;;;;4994726;28;20366;-50
2022/12/25 13:16:35;;;;;;;;;;;9.80;99.90;;;;;;4994529;28;19941;-48
2022/12/25 13:19:05;;;;;;;;;;;9.80;99.90;;;;;;4994321;28;19917;-49
2022/12/25 13:21:31;;;;;;;;;;;9.80;99.90;;;;;;4994352;28;20414;-49
2022/12/25 13:24:01;;;;;;;;;;;9.70;99.90;;;;;;4994535;28;20000;-52
2022/12/25 13:26:27;;;;;;;;;;;9.70;99.90;;;;;;4994445;28;19938;-53
2022/12/25 13:28:54;;;;;;;;;;;9.70;99.90;;;;;;4994425;28;20298;-53
2022/12/25 13:31:30;;;;;;;;;;;9.70;99.90;;;;;;4994256;28;19956;-54
2022/12/25 13:34:05;;;;;;;;;;;9.70;99.90;;;;;;4994460;28;20338;-52
2022/12/25 13:36:35;;;;;;;;;;;9.70;99.90;;;;;;4994228;28;19916;-52
2022/12/25 13:39:01;;;;;;;;;;;9.70;99.90;;;;;;4994037;28;19956;-52
2022/12/25 13:44:23;;;;;;;;;;;9.70;99.90;;;;;;4993933;28;19920;-48
2022/12/25 13:46:49;;;;;;;;;;;9.70;99.90;;;;;;4994147;28;19909;-48
2022/12/25 13:49:23;;;;;;;;;;;9.70;99.90;;;;;;4993728;28;20275;-51
2022/12/25 13:51:49;;;;;;;;;;;9.70;99.90;;;;;;4994003;28;19917;-48
2022/12/25 13:54:16;;;;;;;;;;;9.70;99.90;;;;;;4993971;28;20055;-51
2022/12/25 13:56:46;;;;;;;;;;;9.80;99.90;;;;;;4993881;28;19909;-48
2022/12/25 13:59:16;;;;;;;;;;;9.80;99.90;;;;;;4993667;28;19910;-48
2022/12/25 14:01:42;;;;;;;;;;;9.70;99.90;;;;;;4993730;28;19921;-50
2022/12/25 14:04:12;;;;;;;;;;;9.80;99.90;;;;;;4993687;28;19920;-50
2022/12/25 14:06:38;;;;;;;;;;;9.80;99.90;;;;;;4993477;28;20166;-51
2022/12/25 14:09:04;;;;;;;;;;;9.80;99.90;;;;;;4993579;28;19914;-49
2022/12/25 14:11:30;;;;;;;;;;;9.80;99.90;;;;;;4993790;28;20012;-51
2022/12/25 14:13:57;;;;;;;;;;;9.80;99.90;;;;;;4993607;28;20302;-50
2022/12/25 14:16:23;;;;;;;;;;;9.80;99.90;;;;;;4992309;28;19927;-48
2022/12/25 14:18:49;;;;;;;;;;;9.80;99.90;;;;;;4993766;28;19977;-48
2022/12/25 14:21:21;;;;;;;;;;;9.80;99.90;;;;;;4993173;28;20289;-48
2022/12/25 14:23:48;;;;;;;;;;;9.80;99.90;;;;;;4993405;28;19920;-50
2022/12/25 14:26:25;;;;;;;;;;;9.80;99.90;;;;;;4993352;28;19909;-51
2022/12/25 14:28:52;;;;;;;;;;;9.80;99.90;;;;;;4993169;28;19916;-49
2022/12/25 14:31:18;;;;;;;;;;;9.90;99.90;;;;;;4993303;28;20481;-52
2022/12/25 14:33:44;;;;;;;;;;;9.80;99.90;;;;;;4993192;28;19910;-47
2022/12/25 14:36:11;;;;;;;;;;;9.80;99.90;;;;;;4993974;28;19996;-47
2022/12/25 14:38:39;;;;;;;;;;;9.90;99.90;;;;;;4993551;28;20181;-47
2022/12/25 14:41:16;;;;;;;;;;;9.90;99.90;;;;;;4993867;28;20008;-50
2022/12/25 14:43:52;;;;;;;;;;;9.90;99.90;;;;;;5015117;22;19982;-52
2022/12/25 14:46:22;;;;;;;;;;;9.90;99.90;;;;;;5052339;28;19912;-53
2022/12/25 14:48:56;;;;;;;;;;;10.00;99.90;;;;;;5052056;28;19954;-55
2022/12/25 14:51:22;;;;;;;;;;;10.00;99.90;;;;;;5052517;28;20368;-53
2022/12/25 14:53:49;;;;;;;;;;;10.10;99.90;;;;;;5052075;28;19905;-55
2022/12/25 14:56:18;;;;;;;;;;;10.10;99.90;;;;;;5051966;28;19912;-56
2022/12/25 14:58:47;;;;;;;;;;;10.20;99.90;;;;;;5051972;28;20373;-56
2022/12/25 15:01:18;;;;;;;;;;;10.20;99.90;;;;;;5051854;28;19986;-54
2022/12/25 15:03:44;;;;;;;;;;;10.20;99.90;;;;;;5051912;28;19916;-55
2022/12/25 15:06:20;;;;;;;;;;;10.20;99.90;;;;;;5050568;28;19912;-54
2022/12/25 15:09:14;;;;;;;;;;;10.20;99.90;;;;;;5051621;28;19916;-54
2022/12/25 15:11:40;;;;;;;;;;;10.20;99.90;;;;;;5034365;28;19909;-54
2022/12/25 15:14:06;;;;;;;;;;;10.20;99.90;;;;;;5051919;28;20278;-53
2022/12/25 15:16:36;;;;;;;;;;;10.20;99.90;;;;;;5051506;28;20391;-53
2022/12/25 15:19:01;;;;;;;;;;;10.20;99.90;;;;;;5051404;28;19908;-54
2022/12/25 15:21:29;;;;;;;;;;;10.30;99.90;;;;;;5051519;28;20293;-55
2022/12/25 15:23:56;;;;;;;;;;;10.30;99.90;;;;;;5051590;28;19962;-55
2022/12/25 15:26:21;;;;;;;;;;;10.30;99.90;;;;;;5051435;28;19927;-54
2022/12/25 15:28:47;;;;;;;;;;;10.30;99.90;;;;;;5050951;28;20516;-53
2022/12/25 15:31:18;;;;;;;;;;;10.30;99.90;;;;;;5051465;28;19908;-55
2022/12/25 15:33:44;;;;;;;;;;;10.40;99.90;;;;;;5051286;28;19909;-54
2022/12/25 15:36:09;;;;;;;;;;;10.40;99.90;;;;;;5051422;28;19915;-54
2022/12/25 15:38:35;;;;;;;;;;;10.30;99.90;;;;;;5050979;28;20465;-55
2022/12/25 15:41:01;;;;;;;;;;;10.30;99.90;;;;;;5051243;28;19915;-54
2022/12/25 15:43:26;;;;;;;;;;;10.40;99.90;;;;;;5051207;28;20015;-55
2022/12/25 15:45:52;;;;;;;;;;;10.40;99.90;;;;;;5051405;28;19909;-53
2022/12/25 15:48:18;;;;;;;;;;;10.40;99.90;;;;;;5051069;28;19904;-55
2022/12/25 15:50:45;;;;;;;;;;;10.40;99.90;;;;;;5051127;28;19909;-55
2022/12/25 15:53:11;;;;;;;;;;;10.40;99.90;;;;;;5051469;28;19912;-55
2022/12/25 15:55:37;;;;;;;;;;;10.40;99.90;;;;;;5051261;28;19909;-53
2022/12/25 15:58:02;;;;;;;;;;;10.40;99.90;;;;;;5051018;28;20082;-53
2022/12/25 16:00:28;;;;;;;;;;;10.40;99.90;;;;;;5051002;28;19928;-55
2022/12/25 16:02:54;;;;;;;;;;;10.40;99.90;;;;;;5051035;28;19913;-51
2022/12/25 16:05:20;;;;;;;;;;;10.40;99.90;;;;;;5051401;28;19991;-54
2022/12/25 16:07:46;;;;;;;;;;;10.40;99.90;;;;;;5051073;28;19967;-55
2022/12/25 16:10:14;;;;;;;;;;;10.40;99.90;;;;;;5050953;28;19940;-52
2022/12/25 16:12:40;;;;;;;;;;;10.50;99.90;;;;;;5051135;28;20285;-54
2022/12/25 16:15:06;;;;;;;;;;;10.50;99.90;;;;;;5050968;28;19908;-55
2022/12/25 16:17:31;;;;;;;;;;;10.40;99.90;;;;;;5050614;28;19913;-53